Time;durP1;ratioP1;P1;durP2;ratioP2;P2;SDS_P1;SDS_P2;PMS_P1;PMS_P2;Temp;Humidity;BMP_temperature;BMP_pressure;BME280_temperature;BME280_humidity;BME280_pressure;Samples;Min_cycle;Max_cycle;Signal;HPM_P1;HPM_P2
2023/09/23 00:18:01;;;;;;;2.95;0.98;;;13.20;82.10;;;;;;4947657;28;20055;-91
2023/09/23 00:24:55;;;;;;;3.33;1.10;;;13.30;82.30;;;;;;4910631;29;20901;-91
2023/09/23 01:12:42;;;;;;;4.38;1.50;;;13.10;83.50;;;;;;4875587;29;20123;-91
2023/09/23 01:55:30;;;;;;;3.47;1.60;;;13.00;83.80;;;;;;4750626;30;20304;-91
2023/09/23 02:24:02;;;;;;;6.13;2.50;;;12.90;84.20;;;;;;4934332;28;20067;-91
2023/09/23 02:59:41;;;;;;;;;;;;;;;;;;;;;
2023/09/23 03:03:21;;;;;;;5.00;2.90;;;12.60;83.70;;;;;;4925846;28;20067;-92
2023/09/23 03:11:04;;;;;;;6.53;3.50;;;12.50;83.70;;;;;;4970083;28;20059;-92
2023/09/23 03:18:28;;;;;;;7.07;3.63;;;12.50;83.70;;;;;;4911667;28;20104;-91
2023/09/23 03:21:44;;;;;;;7.33;3.77;;;12.50;83.60;;;;;;4964577;28;20055;-91
2023/09/23 03:28:43;;;;;;;8.05;4.15;;;12.50;83.60;;;;;;4937016;29;20052;-91
2023/09/23 03:43:14;;;;;;;6.97;3.83;;;12.30;83.40;;;;;;4917794;28;20051;-91
2023/09/23 03:45:47;;;;;;;7.28;3.70;;;12.30;83.40;;;;;;4947042;28;20058;-91
2023/09/23 03:52:23;;;;;;;6.85;3.58;;;12.20;83.40;;;;;;4879459;29;20061;-92
2023/09/23 04:01:51;;;;;;;7.32;3.90;;;12.10;83.40;;;;;;4928953;28;20052;-91
2023/09/23 04:04:39;;;;;;;7.15;3.92;;;12.10;83.40;;;;;;4954070;28;20760;-91
2023/09/23 04:07:23;;;;;;;5.97;3.92;;;12.10;83.50;;;;;;4952642;28;20059;-91
2023/09/23 04:10:23;;;;;;;7.93;3.90;;;12.00;83.70;;;;;;4954446;28;20064;-91
2023/09/23 04:13:55;;;;;;;7.53;3.85;;;12.00;83.70;;;;;;4957066;28;20052;-91
2023/09/23 04:16:53;;;;;;;8.50;4.07;;;12.00;83.70;;;;;;4937475;28;20048;-91
2023/09/23 04:19:54;;;;;;;8.30;4.18;;;12.00;83.70;;;;;;4978846;28;20060;-91
2023/09/23 04:23:00;;;;;;;8.95;4.38;;;12.00;83.80;;;;;;4986508;28;20864;-90
2023/09/23 04:32:40;;;;;;;7.90;4.50;;;11.90;84.00;;;;;;4894363;28;21021;-91
2023/09/23 04:35:35;;;;;;;7.53;4.10;;;11.90;84.00;;;;;;4953225;28;20051;-90
2023/09/23 04:38:39;;;;;;;7.85;4.65;;;11.90;84.00;;;;;;4988757;28;20056;-91
2023/09/23 04:41:37;;;;;;;8.80;4.90;;;11.90;84.10;;;;;;4968624;28;20063;-91
2023/09/23 04:44:34;;;;;;;8.25;4.63;;;11.90;84.10;;;;;;4969070;28;20062;-91
2023/09/23 04:50:35;;;;;;;8.82;4.93;;;11.90;84.20;;;;;;4970275;28;20055;-91
2023/09/23 04:53:22;;;;;;;9.45;5.40;;;11.80;84.20;;;;;;4958170;28;20059;-90
2023/09/23 04:56:08;;;;;;;9.97;5.70;;;11.90;84.40;;;;;;4951387;28;20134;-92
2023/09/23 04:59:05;;;;;;;10.98;5.90;;;11.90;84.50;;;;;;4959953;28;20126;-91
2023/09/23 05:01:40;;;;;;;8.95;5.57;;;11.90;84.50;;;;;;4988011;28;20047;-91
2023/09/23 05:04:16;;;;;;;9.25;5.50;;;11.80;84.40;;;;;;4960992;28;20071;-91
2023/09/23 05:06:48;;;;;;;10.23;5.57;;;11.80;84.40;;;;;;4937346;28;20503;-91
2023/09/23 05:09:45;;;;;;;8.70;5.03;;;11.70;84.40;;;;;;4974066;28;20146;-91
2023/09/23 05:12:20;;;;;;;10.45;5.60;;;11.70;84.40;;;;;;4968952;28;20058;-90
2023/09/23 05:14:57;;;;;;;10.63;6.18;;;11.70;84.40;;;;;;4983560;28;20052;-91
2023/09/23 05:17:36;;;;;;;11.05;6.13;;;11.70;84.40;;;;;;4936744;28;20051;-91
2023/09/23 05:20:25;;;;;;;11.07;6.55;;;11.70;84.40;;;;;;4952668;28;20055;-91
2023/09/23 05:23:02;;;;;;;11.57;6.57;;;11.70;84.50;;;;;;4952717;28;20060;-91
2023/09/23 05:25:51;;;;;;;11.65;7.15;;;11.70;84.50;;;;;;4953116;28;20773;-91
2023/09/23 05:28:24;;;;;;;13.57;7.47;;;11.70;84.60;;;;;;4985055;28;20135;-90
2023/09/23 05:30:59;;;;;;;15.48;8.68;;;11.70;84.70;;;;;;4937106;28;20075;-91
2023/09/23 05:33:29;;;;;;;12.75;7.70;;;11.70;84.70;;;;;;4940394;28;20079;-90
2023/09/23 05:36:07;;;;;;;14.90;8.40;;;11.70;84.70;;;;;;4968700;28;20079;-91
2023/09/23 05:38:41;;;;;;;14.40;8.73;;;11.70;84.80;;;;;;4952445;28;20052;-90
2023/09/23 05:41:23;;;;;;;17.63;9.73;;;11.70;85.00;;;;;;4985110;28;20134;-91
2023/09/23 05:44:17;;;;;;;18.42;9.90;;;11.70;85.10;;;;;;4981267;28;20098;-91
2023/09/23 05:46:51;;;;;;;16.63;9.18;;;11.70;85.20;;;;;;4952615;28;20061;-91
2023/09/23 05:49:40;;;;;;;18.57;9.60;;;11.70;85.50;;;;;;4952310;28;20047;-91
2023/09/23 05:52:35;;;;;;;17.23;10.13;;;11.70;85.40;;;;;;4934084;28;20707;-90
2023/09/23 05:55:20;;;;;;;17.60;9.70;;;11.70;85.60;;;;;;4935839;28;20123;-91
2023/09/23 05:57:57;;;;;;;19.92;11.35;;;11.70;85.90;;;;;;4951828;28;20060;-90
2023/09/23 06:00:34;;;;;;;17.80;10.18;;;11.70;85.90;;;;;;4962689;28;20062;-90
2023/09/23 06:03:06;;;;;;;19.53;10.80;;;11.70;86.00;;;;;;4936786;28;20044;-90
2023/09/23 06:05:39;;;;;;;20.25;11.55;;;11.70;85.90;;;;;;4951977;28;20534;-90
2023/09/23 06:08:21;;;;;;;22.17;11.95;;;11.70;86.00;;;;;;4963762;28;20047;-90
2023/09/23 06:10:50;;;;;;;18.98;11.18;;;11.70;86.00;;;;;;4978453;28;20739;-92
2023/09/23 06:13:20;;;;;;;22.23;12.52;;;11.70;86.20;;;;;;4950850;28;20062;-91
2023/09/23 06:15:53;;;;;;;21.37;11.70;;;11.70;86.20;;;;;;4942974;28;20047;-91
2023/09/23 06:18:24;;;;;;;21.23;12.30;;;11.70;86.40;;;;;;4969963;28;20048;-91
2023/09/23 06:21:04;;;;;;;21.95;12.55;;;11.70;86.40;;;;;;4944772;28;20067;-91
2023/09/23 06:23:38;;;;;;;23.63;13.00;;;11.70;86.40;;;;;;4949856;28;20093;-91
2023/09/23 06:26:17;;;;;;;22.65;13.10;;;11.70;86.70;;;;;;4953745;28;20050;-92
2023/09/23 06:28:45;;;;;;;21.73;12.93;;;11.80;86.70;;;;;;4934122;28;20060;-92
2023/09/23 06:31:12;;;;;;;22.40;12.52;;;11.80;86.80;;;;;;4934033;28;20055;-91
2023/09/23 06:33:43;;;;;;;24.10;13.43;;;11.80;86.70;;;;;;4966692;28;20502;-91
2023/09/23 06:36:21;;;;;;;21.98;12.43;;;11.80;87.00;;;;;;4933807;28;20087;-91
2023/09/23 06:39:01;;;;;;;24.77;14.00;;;11.90;87.20;;;;;;4957909;28;20442;-91
2023/09/23 06:41:41;;;;;;;24.97;14.57;;;11.90;87.40;;;;;;4954440;28;20582;-92
2023/09/23 06:44:34;;;;;;;26.05;13.60;;;11.90;87.30;;;;;;4948130;28;20055;-91
2023/09/23 06:47:27;;;;;;;25.75;14.63;;;11.90;87.50;;;;;;4933509;28;20534;-91
2023/09/23 06:50:07;;;;;;;27.13;15.38;;;11.90;87.80;;;;;;4983421;28;20146;-91
2023/09/23 06:52:53;;;;;;;26.17;14.05;;;11.90;87.60;;;;;;4942055;28;20052;-90
2023/09/23 06:55:37;;;;;;;25.60;14.77;;;11.90;87.80;;;;;;4934319;28;20422;-92
2023/09/23 06:58:10;;;;;;;23.63;14.05;;;11.90;87.80;;;;;;4950327;28;20058;-91
2023/09/23 07:00:47;;;;;;;27.85;15.68;;;11.90;87.80;;;;;;4947336;28;20051;-90
2023/09/23 07:12:25;;;;;;;25.83;13.70;;;12.10;88.30;;;;;;4929763;28;20565;-90
2023/09/23 07:15:20;;;;;;;25.67;14.77;;;12.10;88.20;;;;;;4311140;29;17697547;-92
2023/09/23 07:18:42;;;;;;;24.98;14.52;;;12.20;88.40;;;;;;4944070;28;20060;-91
2023/09/23 07:21:30;;;;;;;25.10;13.80;;;12.20;88.40;;;;;;4934839;28;20052;-89
2023/09/23 07:24:59;;;;;;;23.52;13.85;;;12.30;88.60;;;;;;4947376;28;20056;-92
2023/09/23 07:28:32;;;;;;;25.10;14.07;;;12.30;88.80;;;;;;4943174;28;20063;-91
2023/09/23 07:31:19;;;;;;;22.00;12.68;;;12.40;88.90;;;;;;4910485;29;20253;-91
2023/09/23 07:33:47;;;;;;;26.83;14.20;;;12.50;88.80;;;;;;4929850;28;20040;-90
2023/09/23 07:36:15;;;;;;;23.23;13.32;;;12.50;88.80;;;;;;4914975;29;20515;-91
2023/09/23 07:38:48;;;;;;;22.70;13.02;;;12.50;88.90;;;;;;4942343;28;20049;-91
2023/09/23 07:45:02;;;;;;;23.55;13.50;;;12.50;89.00;;;;;;4910933;29;20277;-92
2023/09/23 07:47:35;;;;;;;20.38;11.90;;;12.60;89.10;;;;;;4931575;29;20048;-92
2023/09/23 07:50:07;;;;;;;21.42;11.63;;;12.70;89.00;;;;;;4931338;29;20530;-92
2023/09/23 07:52:44;;;;;;;22.25;13.65;;;12.70;88.90;;;;;;4951803;28;20826;-91
2023/09/23 07:55:19;;;;;;;19.43;11.50;;;12.70;89.00;;;;;;4948304;28;20059;-92
2023/09/23 07:57:50;;;;;;;22.08;10.15;;;12.80;89.20;;;;;;4928526;29;20317;-91
2023/09/23 08:00:23;;;;;;;21.38;12.45;;;12.90;89.20;;;;;;4940337;28;20135;-91
2023/09/23 08:02:56;;;;;;;22.40;11.52;;;12.90;89.20;;;;;;4947330;28;20048;-92
2023/09/23 08:05:26;;;;;;;19.45;11.63;;;13.00;89.20;;;;;;4950788;28;20054;-91
2023/09/23 08:08:03;;;;;;;18.53;11.70;;;13.00;89.10;;;;;;4921138;28;20044;-91
2023/09/23 08:10:49;;;;;;;17.45;10.82;;;13.00;89.10;;;;;;4954952;28;20272;-91
2023/09/23 08:13:26;;;;;;;17.80;10.43;;;13.10;88.90;;;;;;4952095;28;20247;-92
2023/09/23 08:16:03;;;;;;;18.98;10.30;;;13.10;89.00;;;;;;4938530;28;20060;-91
2023/09/23 08:18:33;;;;;;;16.52;9.98;;;13.10;88.90;;;;;;4922123;28;20792;-92
2023/09/23 08:21:03;;;;;;;15.70;9.90;;;13.20;88.70;;;;;;4938402;28;20056;-90
2023/09/23 08:23:36;;;;;;;16.80;10.32;;;13.30;88.70;;;;;;4923197;28;20260;-91
2023/09/23 08:26:07;;;;;;;17.63;9.88;;;13.30;88.70;;;;;;4956768;28;20773;-92
2023/09/23 08:28:39;;;;;;;17.05;8.63;;;13.30;88.40;;;;;;4934445;28;20522;-92
2023/09/23 08:31:14;;;;;;;17.10;9.80;;;13.40;88.30;;;;;;4938700;28;20135;-91
2023/09/23 08:33:56;;;;;;;17.50;10.87;;;13.40;88.20;;;;;;4927148;28;20066;-91
2023/09/23 08:36:50;;;;;;;15.05;9.68;;;13.50;88.20;;;;;;4957280;28;20310;-92
2023/09/23 08:39:23;;;;;;;16.13;9.75;;;13.50;88.20;;;;;;4924672;28;20055;-91
2023/09/23 08:41:57;;;;;;;19.17;9.82;;;13.50;88.40;;;;;;4937662;28;20146;-92
2023/09/23 08:44:35;;;;;;;17.05;10.50;;;13.60;88.50;;;;;;4922147;28;20972;-92
2023/09/23 08:47:10;;;;;;;18.57;11.23;;;13.60;88.30;;;;;;4922484;28;20055;-92
2023/09/23 08:49:45;;;;;;;15.32;9.73;;;13.70;88.30;;;;;;4938229;28;20789;-91
2023/09/23 08:52:24;;;;;;;16.20;9.77;;;13.70;88.30;;;;;;4922604;28;20062;-92
2023/09/23 08:54:59;;;;;;;15.82;9.98;;;13.90;88.30;;;;;;4946988;28;20056;-91
2023/09/23 08:57:34;;;;;;;13.80;8.27;;;13.90;88.20;;;;;;4935723;29;20055;-92
2023/09/23 09:00:13;;;;;;;16.57;10.70;;;13.90;88.20;;;;;;4945481;28;20055;-92
2023/09/23 09:02:43;;;;;;;16.90;10.63;;;14.00;88.20;;;;;;4942756;28;20263;-91
2023/09/23 09:05:19;;;;;;;15.00;10.20;;;14.10;87.70;;;;;;4929179;28;20052;-92
2023/09/23 09:07:47;;;;;;;15.73;10.20;;;14.20;87.20;;;;;;4942025;28;20609;-92
2023/09/23 09:10:27;;;;;;;14.13;9.85;;;14.20;86.80;;;;;;4930362;28;20059;-91
2023/09/23 09:12:58;;;;;;;12.97;9.03;;;14.20;87.00;;;;;;4937403;28;20066;-92
2023/09/23 09:15:31;;;;;;;13.50;7.90;;;14.30;86.90;;;;;;4936791;28;20257;-91
2023/09/23 09:18:01;;;;;;;14.55;8.73;;;14.40;86.20;;;;;;4963772;28;20167;-91
2023/09/23 09:20:37;;;;;;;12.65;9.10;;;14.50;86.10;;;;;;4936887;28;20523;-92
2023/09/23 09:23:05;;;;;;;12.38;8.35;;;14.50;85.70;;;;;;4953319;28;20470;-92
2023/09/23 09:25:46;;;;;;;18.63;13.57;;;14.60;85.40;;;;;;4922944;28;20048;-91
2023/09/23 09:28:22;;;;;;;13.18;8.02;;;14.60;84.70;;;;;;4933940;29;20269;-91
2023/09/23 09:30:56;;;;;;;12.07;7.95;;;14.60;84.30;;;;;;4931616;28;20510;-91
2023/09/23 09:33:27;;;;;;;12.27;8.23;;;14.60;84.40;;;;;;4937364;28;20481;-91
2023/09/23 09:35:56;;;;;;;12.32;7.70;;;14.60;84.60;;;;;;4956448;28;20118;-91
2023/09/23 09:38:26;;;;;;;12.80;8.50;;;14.70;84.40;;;;;;4945990;28;20052;-91
2023/09/23 09:41:03;;;;;;;10.43;7.53;;;14.70;84.40;;;;;;4921242;28;20295;-92
2023/09/23 09:43:33;;;;;;;12.38;7.75;;;14.80;83.80;;;;;;4927102;28;20055;-91
2023/09/23 09:46:08;;;;;;;12.25;7.88;;;14.90;83.90;;;;;;4956186;28;20512;-91
2023/09/23 09:48:43;;;;;;;9.50;6.65;;;14.90;84.10;;;;;;4943915;28;20530;-91
2023/09/23 09:51:15;;;;;;;9.93;6.60;;;15.00;84.10;;;;;;4920630;28;20051;-91
2023/09/23 09:53:46;;;;;;;9.80;6.63;;;15.10;83.20;;;;;;4936517;28;20256;-91
2023/09/23 09:56:13;;;;;;;9.13;5.85;;;15.20;82.90;;;;;;4936649;28;20625;-92
2023/09/23 09:58:43;;;;;;;7.88;5.70;;;15.20;82.70;;;;;;4922860;28;20142;-90
2023/09/23 10:01:12;;;;;;;10.18;5.50;;;15.30;82.80;;;;;;4950986;28;20150;-91
2023/09/23 10:03:42;;;;;;;9.87;5.63;;;15.30;82.70;;;;;;4920368;28;20056;-91
2023/09/23 10:06:22;;;;;;;7.43;5.18;;;15.30;83.00;;;;;;4936941;28;20240;-91
2023/09/23 10:08:51;;;;;;;7.68;3.88;;;15.30;82.90;;;;;;4927617;28;20549;-91
2023/09/23 10:11:31;;;;;;;7.47;3.88;;;15.40;82.10;;;;;;4936402;28;20063;-90
2023/09/23 10:13:58;;;;;;;7.22;4.22;;;15.40;81.90;;;;;;4924831;28;20056;-91
2023/09/23 10:16:29;;;;;;;8.47;4.50;;;15.40;81.70;;;;;;4936553;28;20714;-91
2023/09/23 10:18:58;;;;;;;9.50;4.47;;;15.40;82.00;;;;;;4947184;28;20262;-91
2023/09/23 10:21:35;;;;;;;8.07;4.72;;;15.40;82.00;;;;;;4920443;28;20055;-91
2023/09/23 10:24:09;;;;;;;8.07;4.68;;;15.40;82.40;;;;;;4941239;28;20776;-91
2023/09/23 10:26:43;;;;;;;7.00;3.60;;;15.50;82.20;;;;;;4954683;28;20051;-91
2023/09/23 10:29:20;;;;;;;8.13;4.27;;;15.50;82.40;;;;;;4971363;28;20044;-91
2023/09/23 10:31:49;;;;;;;6.07;3.85;;;15.50;82.30;;;;;;4971345;28;20893;-91
2023/09/23 10:34:17;;;;;;;7.28;3.30;;;15.60;81.70;;;;;;4952209;28;20047;-91
2023/09/23 10:36:50;;;;;;;6.05;3.72;;;15.60;81.40;;;;;;4953589;28;20058;-90
2023/09/23 10:39:19;;;;;;;7.80;4.20;;;15.60;81.00;;;;;;4935955;28;20099;-92
2023/09/23 10:41:47;;;;;;;10.90;3.97;;;15.60;81.10;;;;;;4951336;28;20604;-91
2023/09/23 10:44:15;;;;;;;5.88;3.65;;;15.60;80.90;;;;;;4936198;28;20347;-91
2023/09/23 10:46:43;;;;;;;7.50;3.60;;;15.60;80.80;;;;;;4917129;29;20051;-91
2023/09/23 10:49:15;;;;;;;6.22;3.10;;;15.60;80.90;;;;;;4932785;29;20139;-91
2023/09/23 10:51:47;;;;;;;6.40;3.70;;;15.70;81.10;;;;;;4951779;28;20055;-92
2023/09/23 10:54:17;;;;;;;6.00;3.20;;;15.80;81.20;;;;;;4938945;28;20122;-91
2023/09/23 10:56:48;;;;;;;5.38;2.63;;;15.80;80.70;;;;;;4940572;28;20252;-90
2023/09/23 10:59:18;;;;;;;6.93;3.30;;;16.00;80.30;;;;;;4922615;28;20129;-91
2023/09/23 11:01:49;;;;;;;5.95;2.67;;;16.00;80.50;;;;;;4971020;28;20059;-91
2023/09/23 11:04:21;;;;;;;7.65;2.92;;;16.00;79.60;;;;;;4963680;28;20056;-91
2023/09/23 11:06:52;;;;;;;4.83;2.20;;;16.10;79.50;;;;;;4932854;28;20503;-91
2023/09/23 11:09:21;;;;;;;5.75;3.15;;;16.10;79.20;;;;;;4953575;28;20256;-91
2023/09/23 11:11:49;;;;;;;6.28;2.90;;;16.10;79.30;;;;;;4951417;28;20051;-91
2023/09/23 11:14:28;;;;;;;4.75;3.03;;;16.10;79.70;;;;;;4958377;28;20710;-90
2023/09/23 11:17:08;;;;;;;4.60;2.75;;;16.10;79.30;;;;;;4960272;28;20153;-92
2023/09/23 11:19:35;;;;;;;6.63;3.17;;;16.10;79.30;;;;;;4981049;28;20055;-91
2023/09/23 11:22:09;;;;;;;6.03;3.08;;;16.10;79.60;;;;;;4951089;28;20291;-92
2023/09/23 11:24:41;;;;;;;6.13;3.08;;;16.10;79.00;;;;;;4955408;28;20051;-91
2023/09/23 11:27:17;;;;;;;6.68;2.90;;;16.10;79.10;;;;;;4935263;28;20115;-91
2023/09/23 11:29:56;;;;;;;6.90;2.90;;;16.10;79.60;;;;;;4938079;28;20700;-91
2023/09/23 11:32:36;;;;;;;7.43;2.77;;;16.10;79.50;;;;;;4966999;28;20048;-91
2023/09/23 11:35:10;;;;;;;6.78;2.40;;;16.20;79.20;;;;;;4975610;28;20275;-91
2023/09/23 11:37:53;;;;;;;5.65;2.90;;;16.20;79.60;;;;;;4966635;28;20051;-91
2023/09/23 11:40:22;;;;;;;5.72;2.60;;;16.30;79.70;;;;;;4950602;28;20503;-92
2023/09/23 11:42:57;;;;;;;8.52;2.78;;;16.40;79.00;;;;;;4955788;28;20062;-92
2023/09/23 11:45:34;;;;;;;6.87;2.70;;;16.40;78.30;;;;;;4977910;28;20143;-91
2023/09/23 11:48:06;;;;;;;4.22;1.98;;;16.40;78.40;;;;;;4953460;28;20941;-91
2023/09/23 11:50:38;;;;;;;3.78;1.63;;;16.40;78.10;;;;;;4985292;28;20071;-91
2023/09/23 11:53:13;;;;;;;5.72;2.33;;;16.50;77.50;;;;;;4970180;28;20047;-91
2023/09/23 11:55:42;;;;;;;5.50;2.30;;;16.50;77.20;;;;;;4953777;28;20056;-91
2023/09/23 11:58:15;;;;;;;6.13;2.60;;;16.50;76.60;;;;;;4972965;28;20139;-91
2023/09/23 12:00:49;;;;;;;5.35;2.13;;;16.50;76.80;;;;;;4953255;28;20264;-91
2023/09/23 12:03:17;;;;;;;5.28;1.70;;;16.60;76.90;;;;;;4937803;28;20052;-91
2023/09/23 12:06:11;;;;;;;5.10;1.50;;;16.60;76.20;;;;;;4969950;28;20088;-92
2023/09/23 12:08:43;;;;;;;6.18;1.60;;;16.60;75.00;;;;;;4937290;28;20135;-92
2023/09/23 12:11:28;;;;;;;4.93;1.43;;;16.60;75.00;;;;;;4970780;28;20074;-91
2023/09/23 12:14:08;;;;;;;4.60;1.35;;;16.60;75.20;;;;;;4937249;28;20381;-92
2023/09/23 12:16:42;;;;;;;3.92;1.58;;;16.60;75.30;;;;;;4954401;28;20051;-91
2023/09/23 12:19:19;;;;;;;4.80;1.67;;;16.60;75.50;;;;;;4938418;28;20058;-91
2023/09/23 12:21:49;;;;;;;4.25;1.50;;;16.50;75.90;;;;;;4937876;28;20052;-91
2023/09/23 12:24:25;;;;;;;3.93;1.70;;;16.50;75.90;;;;;;4953380;28;20052;-91
2023/09/23 12:26:56;;;;;;;4.28;1.77;;;16.50;76.20;;;;;;4954301;28;20268;-90
2023/09/23 12:29:23;;;;;;;4.00;1.50;;;16.50;76.90;;;;;;4953733;28;20061;-91
2023/09/23 12:31:50;;;;;;;3.33;1.17;;;16.40;77.70;;;;;;4985803;28;20060;-91
2023/09/23 12:34:19;;;;;;;5.03;1.40;;;16.40;78.10;;;;;;4985127;28;20125;-90
2023/09/23 12:36:47;;;;;;;4.63;1.40;;;16.40;78.20;;;;;;4970067;28;20115;-90
2023/09/23 12:39:16;;;;;;;6.72;1.70;;;16.40;79.10;;;;;;4953484;28;20356;-91
2023/09/23 12:41:48;;;;;;;4.32;1.30;;;16.30;79.70;;;;;;4954177;28;20055;-91
2023/09/23 12:44:25;;;;;;;4.60;1.40;;;16.40;80.50;;;;;;4988871;28;20410;-91
2023/09/23 12:46:53;;;;;;;4.97;1.30;;;16.40;81.20;;;;;;4973159;28;20703;-91
2023/09/23 12:49:24;;;;;;;4.93;1.60;;;16.40;81.20;;;;;;4988715;28;20085;-91
2023/09/23 12:52:10;;;;;;;4.35;1.30;;;16.40;80.90;;;;;;4974085;28;20390;-91
2023/09/23 12:54:46;;;;;;;4.47;1.30;;;16.40;80.80;;;;;;4987041;28;20059;-91
2023/09/23 12:57:28;;;;;;;3.58;1.00;;;16.40;80.30;;;;;;4953663;28;20173;-91
2023/09/23 13:00:09;;;;;;;3.92;1.10;;;16.40;80.30;;;;;;4964456;28;20090;-91
2023/09/23 13:02:52;;;;;;;4.03;1.10;;;16.40;80.40;;;;;;4972765;28;20055;-91
2023/09/23 13:05:44;;;;;;;3.60;1.00;;;16.50;80.60;;;;;;4991025;28;20339;-91
2023/09/23 13:12:31;;;;;;;4.53;1.00;;;16.60;80.70;;;;;;4961178;28;20066;-91
2023/09/23 13:16:31;;;;;;;3.28;1.10;;;16.70;79.90;;;;;;4975472;28;20055;-91
2023/09/23 13:20:00;;;;;;;3.90;1.30;;;16.80;79.90;;;;;;4965000;28;20047;-92
2023/09/23 13:23:19;;;;;;;3.75;1.10;;;16.90;79.50;;;;;;4952668;28;20252;-91
2023/09/23 13:26:23;;;;;;;3.78;1.00;;;17.00;79.00;;;;;;4952938;28;20043;-91
2023/09/23 13:29:39;;;;;;;3.13;0.90;;;17.00;78.30;;;;;;4952998;28;20079;-91
2023/09/23 13:32:32;;;;;;;3.92;1.23;;;17.10;78.60;;;;;;4985551;28;20052;-90
2023/09/23 13:35:21;;;;;;;2.80;0.80;;;17.20;79.00;;;;;;4936380;28;20069;-91
2023/09/23 13:38:24;;;;;;;4.10;0.70;;;17.20;79.00;;;;;;4953095;28;20280;-91
2023/09/23 13:41:21;;;;;;;3.03;0.68;;;17.20;78.10;;;;;;4968301;28;20056;-91
2023/09/23 13:44:26;;;;;;;3.15;0.60;;;17.20;77.70;;;;;;4953339;28;20052;-91
2023/09/23 13:47:20;;;;;;;3.80;0.88;;;17.20;75.90;;;;;;4936535;28;20086;-90
2023/09/23 13:49:55;;;;;;;4.37;0.50;;;17.20;75.70;;;;;;4936740;28;20159;-90
2023/09/23 13:52:25;;;;;;;2.65;0.38;;;17.20;75.90;;;;;;4967063;28;20280;-93
2023/09/23 14:51:33;;;;;;;2.73;0.40;;;16.60;77.60;;;;;;4866156;29;20081;-92
2023/09/23 14:54:45;;;;;;;2.58;0.60;;;16.60;77.20;;;;;;4869081;29;20648;-93
2023/09/23 14:58:58;;;;;;;;;;;;;;;;;;;;;
2023/09/23 17:32:07;;;;;;;23.55;7.40;;;17.00;79.10;;;;;;4807373;29;20055;-91
2023/09/23 17:54:35;;;;;;;3.23;1.00;;;17.00;78.70;;;;;;4838199;29;20118;-89
2023/09/23 18:01:33;;;;;;;4.55;1.40;;;17.00;78.50;;;;;;4958966;28;20059;-89
2023/09/23 18:13:15;;;;;;;4.17;1.30;;;16.90;78.20;;;;;;4818720;29;20051;-90
2023/09/23 18:15:51;;;;;;;4.40;1.30;;;16.90;78.10;;;;;;4824128;29;20307;-91
2023/09/23 18:22:10;;;;;;;2.55;0.50;;;16.80;77.80;;;;;;4837532;29;20066;-89
2023/09/23 18:28:11;;;;;;;3.17;1.10;;;16.80;77.50;;;;;;4901855;29;20528;-89
2023/09/23 18:31:24;;;;;;;3.78;1.05;;;16.80;77.40;;;;;;4894524;29;20906;-90
2023/09/23 18:33:56;;;;;;;2.85;1.15;;;16.70;77.30;;;;;;4864199;29;20740;-89
2023/09/23 18:36:48;;;;;;;3.47;1.52;;;16.70;77.40;;;;;;4891770;29;20435;-89
2023/09/23 18:39:16;;;;;;;4.40;1.70;;;16.70;77.40;;;;;;4937105;28;20059;-89
2023/09/23 18:44:52;;;;;;;2.50;0.90;;;16.60;77.50;;;;;;4993391;28;20270;-88
2023/09/23 18:47:20;;;;;;;2.15;0.68;;;16.50;77.40;;;;;;4986541;28;20143;-91
2023/09/23 18:49:48;;;;;;;2.45;0.80;;;16.50;77.40;;;;;;4982598;28;20048;-88
2023/09/23 18:52:15;;;;;;;3.35;1.30;;;16.50;77.30;;;;;;4986188;28;20080;-89
2023/09/23 18:54:50;;;;;;;3.83;1.30;;;16.50;77.20;;;;;;4950148;28;20059;-90
2023/09/23 18:57:19;;;;;;;3.17;1.10;;;16.40;77.10;;;;;;4950576;28;20335;-89
2023/09/23 18:59:48;;;;;;;3.05;0.90;;;16.40;76.90;;;;;;4956718;28;20055;-88
2023/09/23 19:05:45;;;;;;;2.58;0.93;;;16.40;76.40;;;;;;4949674;28;20498;-89
2023/09/23 19:09:05;;;;;;;3.60;1.07;;;16.30;76.40;;;;;;4960252;28;20055;-89
2023/09/23 19:11:40;;;;;;;3.65;1.20;;;16.20;76.20;;;;;;4963924;28;20797;-89
2023/09/23 19:14:16;;;;;;;3.05;1.30;;;16.20;76.20;;;;;;4983271;28;20051;-91
2023/09/23 19:16:45;;;;;;;2.88;1.35;;;16.20;76.10;;;;;;4963268;28;20146;-91
2023/09/23 19:19:12;;;;;;;2.72;1.10;;;16.10;76.10;;;;;;4966234;28;20500;-90
2023/09/23 19:25:55;;;;;;;3.65;0.80;;;16.00;75.90;;;;;;4950955;28;20274;-85
2023/09/23 19:28:25;;;;;;;2.97;0.90;;;16.00;76.00;;;;;;4949491;28;20773;-85
2023/09/23 19:30:59;;;;;;;3.05;1.20;;;16.00;75.90;;;;;;4966770;28;20048;-90
2023/09/23 19:33:29;;;;;;;3.63;1.15;;;15.90;75.90;;;;;;4951379;28;20661;-89
2023/09/23 19:35:55;;;;;;;2.90;1.10;;;15.90;76.00;;;;;;4932829;28;20483;-88
2023/09/23 19:38:23;;;;;;;5.88;1.05;;;15.90;76.00;;;;;;4983056;28;20343;-88
2023/09/23 19:40:53;;;;;;;2.45;0.57;;;15.80;76.00;;;;;;4950966;28;20450;-88
2023/09/23 19:43:20;;;;;;;2.35;0.77;;;15.80;76.00;;;;;;4969017;28;20059;-90
2023/09/23 19:45:54;;;;;;;3.00;0.82;;;15.80;75.70;;;;;;4949367;28;20114;-87
2023/09/23 19:48:22;;;;;;;3.60;0.60;;;15.70;75.70;;;;;;4949282;28;20078;-86
2023/09/23 19:50:51;;;;;;;2.30;0.40;;;15.70;75.70;;;;;;4949911;28;20749;-85
2023/09/23 19:53:19;;;;;;;1.70;0.40;;;15.60;75.70;;;;;;4990865;28;20055;-86
2023/09/23 19:55:47;;;;;;;2.65;0.70;;;15.60;75.70;;;;;;4950376;28;20063;-91
2023/09/23 20:01:50;;;;;;;3.30;0.60;;;15.60;75.50;;;;;;4984365;28;20064;-91
2023/09/23 20:04:22;;;;;;;3.03;0.70;;;15.50;75.50;;;;;;4973309;28;20324;-92
2023/09/23 20:09:56;;;;;;;4.15;0.60;;;15.40;75.50;;;;;;4953451;28;20060;-89
2023/09/23 20:12:23;;;;;;;2.65;0.57;;;15.40;75.40;;;;;;4969012;28;20111;-88
2023/09/23 20:14:50;;;;;;;2.03;0.40;;;15.30;75.40;;;;;;4952718;28;20502;-87
2023/09/23 20:17:17;;;;;;;2.22;0.60;;;15.30;75.50;;;;;;4937009;28;20256;-88
2023/09/23 20:19:49;;;;;;;2.50;0.50;;;15.20;75.50;;;;;;4969614;28;20597;-91
2023/09/23 20:22:16;;;;;;;1.48;0.30;;;15.20;75.60;;;;;;4953543;28;20054;-89
2023/09/23 20:29:29;;;;;;;2.30;0.40;;;15.10;75.70;;;;;;4933858;29;20099;-90
